createdAt,value
2018-06-02T00:00:52.272Z,4.00
2018-06-02T00:03:19.841Z,3.70
2018-06-02T00:05:47.472Z,4.20
2018-06-02T00:08:15.106Z,4.30
2018-06-02T00:10:42.700Z,4.37
2018-06-02T00:13:10.318Z,3.90
2018-06-02T00:15:37.978Z,4.30
2018-06-02T00:18:06.317Z,3.80
2018-06-02T00:20:33.960Z,4.30
2018-06-02T00:23:01.540Z,3.90
2018-06-02T00:25:29.123Z,4.90
2018-06-02T00:27:57.528Z,3.83
2018-06-02T00:30:25.104Z,4.07
2018-06-02T00:32:52.760Z,3.93
2018-06-02T00:35:20.368Z,4.20
2018-06-02T00:37:47.956Z,4.40
2018-06-02T00:40:16.336Z,4.43
2018-06-02T00:42:44.721Z,4.20
2018-06-02T00:45:13.129Z,4.17
2018-06-02T00:47:41.488Z,4.50
2018-06-02T00:50:09.086Z,4.37
2018-06-02T00:52:36.729Z,3.93
2018-06-02T00:55:07.949Z,4.30
2018-06-02T00:57:35.544Z,4.30
2018-06-02T01:00:03.930Z,4.63
2018-06-02T01:02:31.573Z,4.20
2018-06-02T01:04:59.161Z,4.40
2018-06-02T01:07:26.798Z,4.40
2018-06-02T01:09:54.397Z,4.82
2018-06-02T01:12:24.287Z,4.47
2018-06-02T01:14:54.457Z,4.10
2018-06-02T01:17:25.329Z,4.73
2018-06-02T01:19:55.887Z,4.37
2018-06-02T01:22:25.780Z,4.80
2018-06-02T01:24:55.440Z,4.30
2018-06-02T01:27:26.307Z,4.53
2018-06-02T01:29:55.985Z,4.60
2018-06-02T01:32:25.800Z,4.28
2018-06-02T01:34:53.409Z,4.10
2018-06-02T01:37:21.027Z,4.10
2018-06-02T01:39:48.651Z,4.50
2018-06-02T01:42:16.291Z,4.75
2018-06-02T01:44:43.886Z,4.50
2018-06-02T01:47:11.492Z,3.50
2018-06-02T01:49:39.141Z,4.15
2018-06-02T01:52:06.745Z,3.87
2018-06-02T01:54:34.342Z,4.30
2018-06-02T01:57:01.986Z,4.30
2018-06-02T01:59:29.582Z,3.72
2018-06-02T02:01:57.977Z,5.20
2018-06-02T02:04:25.606Z,4.93
2018-06-02T02:06:53.249Z,4.40
2018-06-02T02:09:20.877Z,4.90
2018-06-02T02:11:48.471Z,4.60
2018-06-02T02:14:16.087Z,4.50
2018-06-02T02:16:44.501Z,5.32
2018-06-02T02:19:12.123Z,4.57
2018-06-02T02:21:40.482Z,5.65
2018-06-02T02:24:09.607Z,4.62
2018-06-02T02:26:37.983Z,4.68
2018-06-02T02:29:06.370Z,4.85
2018-06-02T02:31:34.001Z,5.07
2018-06-02T02:34:02.395Z,4.57
2018-06-02T02:36:30.891Z,4.85
2018-06-02T02:38:58.516Z,4.80
2018-06-02T02:41:26.103Z,4.25
2018-06-02T02:43:54.486Z,4.53
2018-06-02T02:46:22.874Z,4.15
2018-06-02T02:48:51.273Z,5.10
2018-06-02T02:51:18.859Z,4.53
2018-06-02T02:53:46.440Z,5.05
2018-06-02T02:56:14.055Z,5.30
2018-06-02T02:58:41.684Z,4.25
2018-06-02T03:01:10.075Z,5.28
2018-06-02T03:03:37.714Z,4.90
2018-06-02T03:06:05.299Z,5.60
2018-06-02T03:08:33.683Z,4.80
2018-06-02T03:11:01.323Z,4.12
2018-06-02T03:13:28.922Z,5.03
2018-06-02T03:15:56.556Z,4.95
2018-06-02T03:18:24.924Z,4.35
2018-06-02T03:20:53.337Z,5.40
2018-06-02T03:23:20.933Z,4.75
2018-06-02T03:25:48.556Z,4.55
2018-06-02T03:28:16.175Z,5.28
2018-06-02T03:30:43.771Z,5.72
2018-06-02T03:33:12.173Z,5.72
2018-06-02T03:35:39.750Z,5.28
2018-06-02T03:38:07.343Z,4.50
2018-06-02T03:40:34.978Z,4.93
2018-06-02T03:43:02.567Z,4.45
2018-06-02T03:45:30.184Z,4.75
2018-06-02T03:47:57.832Z,5.50
2018-06-02T03:50:25.477Z,4.97
2018-06-02T03:52:53.826Z,5.37
2018-06-02T03:55:21.430Z,4.30
2018-06-02T03:57:49.058Z,5.10
2018-06-02T04:00:16.650Z,4.97
2018-06-02T04:02:44.291Z,5.30
2018-06-02T04:05:11.884Z,5.03
2018-06-02T04:07:39.530Z,5.05
2018-06-02T04:10:07.130Z,4.75
2018-06-02T04:12:34.762Z,4.95
2018-06-02T04:15:02.394Z,6.12
2018-06-02T04:17:30.760Z,5.35
2018-06-02T04:19:58.401Z,5.15
2018-06-02T04:22:26.030Z,5.28
2018-06-02T04:24:53.635Z,5.25
2018-06-02T04:27:21.253Z,4.60
2018-06-02T04:29:48.889Z,5.53
2018-06-02T04:32:16.493Z,5.30
2018-06-02T04:34:44.130Z,5.50
2018-06-02T04:37:12.474Z,5.00
2018-06-02T04:39:40.054Z,5.40
2018-06-02T04:42:07.676Z,5.57
2018-06-02T04:44:35.293Z,4.75
2018-06-02T04:47:03.657Z,4.93
2018-06-02T04:49:32.046Z,5.28
2018-06-02T04:52:00.446Z,5.68
2018-06-02T04:54:28.040Z,6.62
2018-06-02T04:56:55.669Z,6.87
2018-06-02T04:59:23.273Z,6.45
2018-06-02T05:01:50.892Z,6.00
2018-06-02T05:04:18.518Z,6.40
2018-06-02T05:06:46.922Z,5.50
2018-06-02T05:09:14.527Z,6.05
2018-06-02T05:11:42.167Z,4.80
2018-06-02T05:14:09.786Z,5.30
2018-06-02T05:16:38.170Z,5.35
2018-06-02T05:19:05.789Z,4.90
2018-06-02T05:21:33.388Z,6.50
2018-06-02T05:24:01.778Z,5.20
2018-06-02T05:26:30.136Z,5.70
2018-06-02T05:28:57.794Z,7.10
2018-06-02T05:31:25.398Z,6.60
2018-06-02T05:33:53.123Z,5.00
2018-06-02T05:36:21.510Z,6.10
2018-06-02T05:38:49.973Z,6.20
2018-06-02T05:41:17.599Z,6.17
2018-06-02T05:43:45.196Z,5.97
2018-06-02T05:46:12.824Z,6.33
2018-06-02T05:48:40.408Z,5.70
2018-06-02T05:51:08.054Z,6.03
2018-06-02T05:53:35.673Z,6.20
2018-06-02T05:56:04.050Z,6.43
2018-06-02T05:58:31.658Z,5.40
2018-06-02T06:00:59.303Z,6.53
2018-06-02T06:03:26.887Z,6.20
2018-06-02T06:05:54.476Z,6.67
2018-06-02T06:08:22.098Z,5.67
2018-06-02T06:10:50.525Z,5.50
2018-06-02T06:13:18.144Z,5.60
2018-06-02T06:15:45.762Z,6.13
2018-06-02T06:18:13.394Z,6.07
2018-06-02T06:20:40.967Z,5.80
2018-06-02T06:23:08.591Z,6.33
2018-06-02T06:25:36.186Z,6.33
2018-06-02T06:28:03.835Z,5.50
2018-06-02T06:30:31.466Z,6.70
2018-06-02T06:32:59.171Z,6.10
2018-06-02T06:35:26.777Z,6.33
2018-06-02T06:37:55.136Z,7.40
2018-06-02T06:40:23.538Z,7.57
2018-06-02T06:42:51.927Z,7.13
2018-06-02T06:45:19.519Z,7.23
2018-06-02T06:47:47.099Z,6.80
2018-06-02T06:50:14.724Z,7.03
2018-06-02T06:52:42.305Z,7.40
2018-06-02T06:55:09.928Z,7.20
2018-06-02T06:57:37.576Z,6.90
2018-06-02T07:00:05.162Z,7.10
2018-06-02T07:02:32.761Z,7.17
2018-06-02T07:05:00.399Z,7.73
2018-06-02T07:07:27.996Z,6.50
2018-06-02T07:09:55.630Z,6.97
2018-06-02T07:12:23.228Z,6.80
2018-06-02T07:14:50.804Z,7.60
2018-06-02T07:17:19.215Z,6.80
2018-06-02T07:19:46.794Z,7.43
2018-06-02T07:22:15.192Z,6.57
2018-06-02T07:24:42.794Z,6.73
2018-06-02T07:27:10.419Z,6.07
2018-06-02T07:29:38.051Z,5.70
2018-06-02T07:32:05.623Z,6.37
2018-06-02T07:34:33.213Z,5.10
2018-06-02T07:37:01.640Z,5.70
2018-06-02T07:39:29.237Z,5.03
2018-06-02T07:41:57.701Z,6.50
2018-06-02T07:44:25.368Z,5.00
2018-06-02T07:46:53.011Z,5.63
2018-06-02T07:49:20.673Z,5.10
2018-06-02T07:51:48.252Z,5.33
2018-06-02T07:54:15.898Z,4.83
2018-06-02T07:56:43.518Z,4.50
2018-06-02T07:59:11.146Z,4.67
2018-06-02T08:01:38.749Z,4.37
2018-06-02T08:04:07.145Z,4.00
2018-06-02T08:06:34.811Z,5.03
2018-06-02T08:09:02.434Z,4.80
2018-06-02T08:11:30.017Z,4.87
2018-06-02T08:13:58.424Z,5.27
2018-06-02T08:16:26.014Z,4.43
2018-06-02T08:18:53.601Z,4.73
2018-06-02T08:21:21.209Z,4.30
2018-06-02T08:23:48.841Z,5.20
2018-06-02T08:26:17.242Z,4.97
2018-06-02T08:28:44.885Z,4.80
2018-06-02T08:31:13.251Z,4.57
2018-06-02T08:33:41.666Z,4.30
2018-06-02T08:36:10.020Z,5.07
2018-06-02T08:38:38.405Z,4.00
2018-06-02T08:41:06.753Z,3.87
2018-06-02T08:43:34.418Z,3.80
2018-06-02T08:46:02.019Z,4.20
2018-06-02T08:48:29.632Z,3.77
2018-06-02T08:50:57.269Z,4.20
2018-06-02T08:53:24.858Z,4.47
2018-06-02T08:55:53.355Z,3.80
2018-06-02T08:58:21.750Z,3.20
2018-06-02T09:00:50.103Z,3.97
2018-06-02T09:03:17.757Z,3.63
2018-06-02T09:05:45.346Z,3.07
2018-06-02T09:08:13.768Z,3.37
2018-06-02T09:10:41.391Z,3.60
2018-06-02T09:13:09.803Z,3.40
2018-06-02T09:15:37.441Z,4.03
2018-06-02T09:18:05.113Z,3.53
2018-06-02T09:20:33.509Z,3.77
2018-06-02T09:23:01.146Z,3.83
2018-06-02T09:25:28.766Z,3.73
2018-06-02T09:27:57.148Z,4.03
2018-06-02T09:30:26.479Z,4.20
2018-06-02T09:32:54.869Z,3.50
2018-06-02T09:35:23.209Z,3.30
2018-06-02T09:37:50.844Z,3.40
2018-06-02T09:40:18.442Z,3.23
2018-06-02T09:42:46.124Z,3.27
2018-06-02T09:45:14.510Z,3.20
2018-06-02T09:47:42.895Z,3.03
2018-06-02T09:50:11.279Z,3.37
2018-06-02T09:52:39.694Z,2.83
2018-06-02T09:55:07.280Z,3.70
2018-06-02T09:57:34.862Z,4.33
2018-06-02T10:00:02.487Z,3.90
2018-06-02T10:02:30.128Z,2.90
2018-06-02T10:04:58.498Z,3.40
2018-06-02T10:07:26.079Z,2.80
2018-06-02T10:09:53.702Z,3.60
2018-06-02T10:12:21.368Z,2.80
2018-06-02T10:14:49.765Z,3.70
2018-06-02T10:17:17.392Z,3.53
2018-06-02T10:19:44.998Z,3.00
2018-06-02T10:22:12.626Z,2.70
2018-06-02T10:24:40.978Z,3.27
2018-06-02T10:27:08.606Z,3.03
2018-06-02T10:29:36.281Z,3.30
2018-06-02T10:32:03.902Z,3.10
2018-06-02T10:34:32.245Z,3.00
2018-06-02T10:36:59.866Z,3.30
2018-06-02T10:39:27.499Z,3.17
2018-06-02T10:41:55.955Z,2.80
2018-06-02T10:44:23.531Z,2.90
2018-06-02T10:46:51.904Z,3.67
2018-06-02T10:49:19.530Z,3.30
2018-06-02T10:51:47.137Z,3.20
2018-06-02T10:54:15.532Z,3.30
2018-06-02T10:56:43.918Z,3.37
2018-06-02T10:59:11.497Z,3.37
2018-06-02T11:01:39.142Z,2.67
2018-06-02T11:04:06.736Z,3.10
2018-06-02T11:06:34.350Z,3.10
2018-06-02T11:09:02.725Z,2.80
2018-06-02T11:11:31.100Z,2.93
2018-06-02T11:13:59.571Z,3.30
2018-06-02T11:16:27.959Z,3.40
2018-06-02T11:18:56.358Z,3.20
2018-06-02T11:21:24.701Z,3.00
2018-06-02T11:23:52.312Z,2.60
2018-06-02T11:26:19.939Z,2.97
2018-06-02T11:28:47.565Z,3.67
2018-06-02T11:31:15.141Z,3.37
2018-06-02T11:33:42.748Z,3.33
2018-06-02T11:36:10.399Z,2.93
2018-06-02T11:38:38.782Z,3.00
2018-06-02T11:41:07.181Z,3.30
2018-06-02T11:43:34.827Z,3.03
2018-06-02T11:46:03.182Z,3.10
2018-06-02T11:48:30.797Z,2.90
2018-06-02T11:50:58.426Z,2.77
2018-06-02T11:53:26.007Z,3.53
2018-06-02T11:55:53.605Z,3.60
2018-06-02T11:58:21.267Z,3.20
2018-06-02T12:00:48.950Z,2.90
2018-06-02T12:03:16.559Z,2.90
2018-06-02T12:05:44.222Z,3.27
2018-06-02T12:08:11.861Z,3.27
2018-06-02T12:10:39.445Z,3.70
2018-06-02T12:13:07.050Z,4.00
2018-06-02T12:15:34.672Z,3.30
2018-06-02T12:18:02.294Z,3.30
2018-06-02T12:20:30.720Z,2.77
2018-06-02T12:22:58.314Z,3.30
2018-06-02T12:25:25.949Z,3.40
2018-06-02T12:27:53.556Z,3.37
2018-06-02T12:30:21.955Z,3.77
2018-06-02T12:32:50.316Z,3.47
2018-06-02T12:35:18.719Z,3.20
2018-06-02T12:37:46.306Z,3.30
2018-06-02T12:40:13.956Z,4.17
2018-06-02T12:42:41.548Z,3.10
2018-06-02T12:45:09.178Z,2.97
2018-06-02T12:47:36.923Z,3.30
2018-06-02T12:50:04.529Z,3.53
2018-06-02T12:52:32.185Z,3.30
2018-06-02T12:54:59.851Z,3.17
2018-06-02T12:57:27.455Z,2.90
2018-06-02T12:59:55.879Z,3.20
2018-06-02T13:02:23.476Z,3.30
2018-06-02T13:04:51.049Z,3.47
2018-06-02T13:07:18.777Z,3.07
2018-06-02T13:09:46.346Z,2.63
2018-06-02T13:12:13.980Z,2.83
2018-06-02T13:14:41.595Z,2.87
2018-06-02T13:17:09.223Z,3.30
2018-06-02T13:19:36.828Z,2.77
2018-06-02T13:22:04.502Z,3.13
2018-06-02T13:24:32.874Z,3.70
2018-06-02T13:27:01.303Z,2.30
2018-06-02T13:29:28.894Z,3.10
2018-06-02T13:31:56.531Z,2.83
2018-06-02T13:34:24.139Z,2.53
2018-06-02T13:36:51.775Z,3.03
2018-06-02T13:39:19.389Z,3.17
2018-06-02T13:41:46.975Z,3.30
2018-06-02T13:44:14.648Z,2.10
2018-06-02T13:46:42.294Z,2.47
2018-06-02T13:49:10.291Z,2.30
2018-06-02T13:51:37.945Z,2.77
2018-06-02T13:54:05.551Z,3.00
2018-06-02T13:56:33.941Z,3.13
2018-06-02T13:59:01.581Z,3.30
2018-06-02T14:01:29.971Z,2.70
2018-06-02T14:03:58.382Z,2.77
2018-06-02T14:06:25.968Z,2.53
2018-06-02T14:08:53.581Z,2.90
2018-06-02T14:11:21.249Z,2.27
2018-06-02T14:13:49.626Z,3.17
2018-06-02T14:16:17.975Z,3.37
2018-06-02T14:18:45.625Z,2.57
2018-06-02T14:21:13.209Z,3.33
2018-06-02T14:23:40.827Z,3.07
2018-06-02T14:26:08.406Z,3.00
2018-06-02T14:28:36.039Z,2.83
2018-06-02T14:31:03.637Z,2.60
2018-06-02T14:33:31.252Z,2.83
2018-06-02T14:35:58.857Z,2.90
2018-06-02T14:38:26.560Z,3.47
2018-06-02T14:40:55.008Z,2.40
2018-06-02T14:43:22.693Z,3.13
2018-06-02T14:45:51.050Z,3.10
2018-06-02T14:48:18.633Z,3.10
2018-06-02T14:50:47.050Z,3.37
2018-06-02T14:53:14.638Z,3.47
2018-06-02T14:55:42.213Z,3.63
2018-06-02T14:58:10.718Z,3.77
2018-06-02T15:00:39.138Z,2.90
2018-06-02T15:03:06.721Z,3.50
2018-06-02T15:05:34.356Z,3.90
2018-06-02T15:08:01.989Z,2.90
2018-06-02T15:10:30.390Z,3.20
2018-06-02T15:12:57.975Z,2.97
2018-06-02T15:15:25.578Z,3.37
2018-06-02T15:17:53.966Z,3.33
2018-06-02T15:20:21.571Z,3.00
2018-06-02T15:22:49.168Z,3.03
2018-06-02T15:25:16.829Z,2.50
2018-06-02T15:27:44.465Z,2.67
2018-06-02T15:30:12.125Z,3.00
2018-06-02T15:32:39.717Z,2.90
2018-06-02T15:35:07.380Z,3.67
2018-06-02T15:37:35.877Z,3.33
2018-06-02T15:40:04.331Z,4.00
2018-06-02T15:42:34.403Z,2.93
2018-06-02T15:45:02.632Z,3.10
2018-06-02T15:47:30.309Z,2.80
2018-06-02T15:49:58.685Z,3.33
2018-06-02T15:52:26.330Z,2.83
2018-06-02T15:54:53.939Z,2.70
2018-06-02T15:57:21.556Z,3.00
2018-06-02T15:59:49.897Z,2.13
2018-06-02T16:02:17.525Z,2.27
2018-06-02T16:04:45.321Z,2.93
2018-06-02T16:07:12.941Z,2.87
2018-06-02T16:09:40.588Z,2.80
2018-06-02T16:12:09.002Z,3.37
2018-06-02T16:14:36.931Z,3.13
2018-06-02T16:17:04.552Z,3.80
2018-06-02T16:19:32.189Z,3.43
2018-06-02T16:21:59.826Z,3.37
2018-06-02T16:24:27.422Z,3.97
2018-06-02T16:26:55.037Z,3.03
2018-06-02T16:29:22.658Z,2.77
2018-06-02T16:31:50.306Z,2.80
2018-06-02T16:34:17.897Z,2.80
2018-06-02T16:36:45.514Z,3.13
2018-06-02T16:39:13.870Z,2.83
2018-06-02T16:41:41.491Z,3.60
2018-06-02T16:44:09.106Z,2.80
2018-06-02T16:46:37.504Z,3.20
2018-06-02T16:49:05.135Z,3.50
2018-06-02T16:51:32.725Z,3.10
2018-06-02T16:54:01.073Z,3.40
2018-06-02T16:56:28.726Z,3.20
2018-06-02T16:58:57.442Z,3.57
2018-06-02T17:01:25.175Z,4.00
2018-06-02T17:03:52.754Z,3.10
2018-06-02T17:06:20.366Z,3.80
2018-06-02T17:08:47.983Z,3.27
2018-06-02T17:11:15.612Z,3.30
2018-06-02T17:13:43.720Z,3.60
2018-06-02T17:16:11.344Z,3.47
2018-06-02T17:18:38.935Z,4.80
2018-06-02T17:21:08.150Z,4.17
2018-06-02T17:23:36.609Z,3.50
2018-06-02T17:26:04.244Z,4.20
2018-06-02T17:28:31.846Z,3.80
2018-06-02T17:31:00.201Z,3.67
2018-06-02T17:33:27.835Z,4.00
2018-06-02T17:35:55.416Z,3.60
2018-06-02T17:38:23.162Z,3.53
2018-06-02T17:40:50.777Z,3.93
2018-06-02T17:43:18.364Z,3.80
2018-06-02T17:45:45.972Z,3.83
2018-06-02T17:48:13.586Z,3.80
2018-06-02T17:50:41.229Z,4.03
2018-06-02T17:53:08.851Z,3.87
2018-06-02T17:55:36.429Z,3.70
2018-06-02T17:58:04.041Z,4.23
2018-06-02T18:00:31.680Z,4.37
2018-06-02T18:03:00.134Z,5.40
2018-06-02T18:05:27.784Z,4.30
2018-06-02T18:07:55.393Z,4.77
2018-06-02T18:10:23.765Z,4.57
2018-06-02T18:12:52.146Z,3.57
2018-06-02T18:15:19.729Z,3.57
2018-06-02T18:17:48.149Z,4.17
2018-06-02T18:20:15.791Z,4.40
2018-06-02T18:22:43.372Z,7.80
2018-06-02T18:25:10.986Z,6.43
2018-06-02T18:27:39.386Z,4.50
2018-06-02T18:30:06.994Z,4.43
2018-06-02T18:32:34.609Z,3.63
2018-06-02T18:35:02.191Z,4.10
2018-06-02T18:37:29.801Z,3.40
2018-06-02T18:39:58.186Z,3.20
2018-06-02T18:42:26.534Z,3.90
2018-06-02T18:44:54.170Z,4.40
2018-06-02T18:47:21.746Z,4.07
2018-06-02T18:49:49.357Z,3.80
2018-06-02T18:52:17.730Z,3.47
2018-06-02T18:54:46.128Z,3.87
2018-06-02T18:57:13.710Z,4.13
2018-06-02T18:59:41.562Z,3.67
2018-06-02T19:02:09.193Z,3.80
2018-06-02T19:04:37.610Z,3.27
2018-06-02T19:07:05.622Z,3.43
2018-06-02T19:09:33.238Z,3.50
2018-06-02T19:12:00.886Z,4.07
2018-06-02T19:14:29.299Z,4.73
2018-06-02T19:16:56.877Z,4.00
2018-06-02T19:19:24.525Z,4.80
2018-06-02T19:21:52.127Z,4.80
2018-06-02T19:24:20.523Z,4.80
2018-06-02T19:26:48.863Z,4.13
2018-06-02T19:29:17.050Z,4.70
2018-06-02T19:31:44.625Z,5.03
2018-06-02T19:34:12.241Z,4.80
2018-06-02T19:36:39.866Z,4.70
2018-06-02T19:39:08.208Z,4.57
2018-06-02T19:41:35.841Z,4.60
2018-06-02T19:44:03.542Z,4.07
2018-06-02T19:46:31.215Z,4.50
2018-06-02T19:48:58.851Z,4.37
2018-06-02T19:51:26.526Z,4.63
2018-06-02T19:53:54.100Z,4.17
2018-06-02T19:56:21.725Z,5.10
2018-06-02T19:58:49.339Z,4.70
2018-06-02T20:01:16.960Z,6.20
2018-06-02T20:03:46.757Z,6.70
2018-06-02T20:06:14.329Z,6.47
2018-06-02T20:08:42.006Z,6.70
2018-06-02T20:11:09.656Z,6.70
2018-06-02T20:13:38.158Z,6.60
2018-06-02T20:16:05.804Z,6.87
2018-06-02T20:18:33.401Z,6.30
2018-06-02T20:21:01.057Z,6.90
2018-06-02T20:23:29.431Z,6.80
2018-06-02T20:25:58.037Z,7.83
2018-06-02T20:28:25.769Z,7.50
2018-06-02T20:30:53.374Z,7.77
2018-06-02T20:33:20.980Z,7.50
2018-06-02T20:35:48.611Z,6.77
2018-06-02T20:38:16.212Z,6.33
2018-06-02T20:40:43.825Z,6.30
2018-06-02T20:43:12.226Z,5.37
2018-06-02T20:45:39.855Z,6.20
2018-06-02T20:48:08.226Z,6.67
2018-06-02T20:50:35.853Z,7.40
2018-06-02T20:53:03.448Z,7.30
2018-06-02T20:55:31.070Z,6.10
2018-06-02T20:57:58.654Z,7.10
2018-06-02T21:00:26.306Z,7.10
2018-06-02T21:02:53.928Z,7.17
2018-06-02T21:05:21.581Z,6.97
2018-06-02T21:07:49.991Z,7.40
2018-06-02T21:10:17.577Z,7.17
2018-06-02T21:12:45.193Z,6.40
2018-06-02T21:15:12.796Z,6.93
2018-06-02T21:17:40.421Z,7.47
2018-06-02T21:20:08.035Z,7.63
2018-06-02T21:22:35.728Z,6.70
2018-06-02T21:25:03.387Z,6.93
2018-06-02T21:27:31.786Z,6.17
2018-06-02T21:30:01.410Z,6.47
2018-06-02T21:32:29.038Z,6.23
2018-06-02T21:34:56.699Z,6.77
2018-06-02T21:37:25.070Z,6.50
2018-06-02T21:39:53.569Z,6.80
2018-06-02T21:42:21.955Z,7.83
2018-06-02T21:44:49.600Z,7.63
2018-06-02T21:47:17.201Z,7.17
2018-06-02T21:49:44.844Z,6.60
2018-06-02T21:52:12.487Z,6.73
2018-06-02T21:54:40.160Z,7.13
2018-06-02T21:57:08.582Z,8.10
2018-06-02T21:59:36.178Z,8.17
2018-06-02T22:02:03.767Z,6.67
2018-06-02T22:04:32.181Z,7.23
2018-06-02T22:06:59.778Z,7.03
2018-06-02T22:09:27.359Z,7.60
2018-06-02T22:11:55.778Z,7.80
2018-06-02T22:14:23.362Z,8.10
2018-06-02T22:16:50.941Z,6.80
2018-06-02T22:19:18.607Z,6.40
2018-06-02T22:21:46.188Z,7.87
2018-06-02T22:24:13.838Z,7.40
2018-06-02T22:26:41.434Z,6.93
2018-06-02T22:29:09.781Z,6.20
2018-06-02T22:31:37.541Z,6.67
2018-06-02T22:34:05.174Z,6.93
2018-06-02T22:36:32.768Z,5.90
2018-06-02T22:39:00.408Z,6.80
2018-06-02T22:41:28.874Z,6.63
2018-06-02T22:43:56.504Z,7.20
2018-06-02T22:46:24.850Z,6.10
2018-06-02T22:48:52.481Z,7.07
2018-06-02T22:51:31.932Z,6.63
2018-06-02T22:53:59.595Z,7.10
2018-06-02T22:56:27.238Z,6.70
2018-06-02T22:58:54.853Z,6.33
2018-06-02T23:01:22.441Z,6.97
2018-06-02T23:03:50.054Z,7.60
2018-06-02T23:06:18.473Z,6.47
2018-06-02T23:08:46.877Z,6.60
2018-06-02T23:11:14.530Z,6.20
2018-06-02T23:13:42.473Z,6.50
2018-06-02T23:16:10.153Z,5.87
2018-06-02T23:18:40.174Z,5.83
2018-06-02T23:21:07.859Z,7.00
2018-06-02T23:23:39.934Z,6.40
2018-06-02T23:26:08.356Z,6.30
2018-06-02T23:28:40.947Z,6.60
2018-06-02T23:31:09.453Z,6.40
2018-06-02T23:33:37.110Z,7.00
2018-06-02T23:36:06.077Z,6.10
2018-06-02T23:38:34.114Z,6.40
2018-06-02T23:41:07.704Z,6.70
2018-06-02T23:43:35.339Z,6.97
2018-06-02T23:46:03.683Z,7.73
2018-06-02T23:48:31.302Z,6.80
2018-06-02T23:50:58.923Z,7.00
2018-06-02T23:53:27.335Z,7.10
2018-06-02T23:55:54.933Z,7.20
2018-06-02T23:58:22.564Z,6.40
